Accueil
METAR-TAF:

METAR-TAF

Aéroports :

Aéroport de Gênes-Christophe Colomb

Gênes, Italie

latitude: 44-25N, longitude: 008-51E, altitude: 2 m

Observation

Le bulletin a été fait il y a 23 minutes, à 15:50 UTC
Vent 7 kt de nord-ouest, variant entre ouest et nord/nord-est
Température 21°C
Humidité 23%
Pression 1025 hPa
Visibilité 10 km ou plus
pas de nuages en-dessous de 1500 mètres et pas de cumulonimbus.

METAR: LIMJ 221550Z 31007KT 260V020 CAVOK 21/M01 Q1025

Heure: 17:13 (16:13 UTC)

Prévision

Le bulletin a été fait il y a 5 heures et 13 minutes, à 11:00 UTC
Prévision valable du 22 à 12 UTC au 23 à 12 UTC
Vent 10 kt de nord/nord-est
Visibilité 10 km ou plus
pas de nuages en-dessous de 1500 mètres et pas de cumulonimbus.
Temporairement
du 22 à 12 UTC au 22 à 18 UTC
Vent 15 kt de nord/nord-est avec des rafales jusqu'à 25 kt

TAF: LIMJ 221100Z 2212/2312 02010KT CAVOK TEMPO 2212/2218 02015G25KT

Observations et prévisions météorologiques de plus de 4000 aéroports (messages METAR et TAF).

Les stations disponibles sont représentées par des disques jaunes et rouges sur la carte.

Passer la souris dessus pour voir le nom de la station.

Cliquer dessus pour voir les observations et prévisions météorologiques.

Pour changer de carte: cliquez sur les boutons verts avec une croix noire pour zoomer, sur le bouton vert avec un tiret pour effectuer un zoom arrière, ou sur les flèches vertes pour les cartes adjacentes.


METAR-TAF: